メインページ
METAR-TAF:

METAR-TAF

空港 :

フンシャル, マデイラ諸島, ポルトガル

マデイラ空港

緯度: 32-41-52N, 経度: 016-46-28W, 海抜: 59m

現時点の気象観測

当レポートは35分前の04:30(UTC)に作成
の風 10kt、北/北西から北/北東の間で変化する
気温 22°C
湿度 65%
気圧 1024 hPa
視程10km以上
高度1600ftの雲はほとんどない

METAR: LPMA 210430Z 36010KT 330V030 9999 FEW016 22/15 Q1024

時間: 06:05 (05:05 UTC)

予報

当レポートは6時間5分前の23:00(UTC)に作成
予報は21日の 00時(UTC)から 21日の 24時(UTC)まで有効
北/北西の風 5kt
視程10km以上
高度1500ftの雲はほとんどない
21日の 09時(UTC)から 21日の 12時(UTC)まで徐々に
北/北東の風 15kt
高度1500ftの雲は散在している
高度3000ftの雲は散在している
確率 40% :
21日の 20時(UTC)から 21日の 24時(UTC)まで一時的に
視程: 6000m
高度800ftの雲はほとんどない
高度1500ftの千切れ雲あり
小雨, 霧雨

TAF: LPMA 202300Z 2100/2124 34005KT 9999 FEW015 BECMG 2109/2112 03015KT SCT015 SCT030 PROB40 TEMPO 2120/2124 6000 -RADZ FEW008 BKN015

4,000以上の空港の気象観測と天気予報(METAR報とTAF報)

利用可能な観測所は地図上に黄色い丸と赤い丸で示す。

丸の上にカーソルを重ねると観測所名を参照できる。

次にクリックすると気象観測と天気予報を参照できる。

マップの切り替え:黒色「×」印の緑ボタンをクリックして拡大、「-」印の緑ボタンをクリックして縮小、緑色の三角印をクリックして隣りの地図に切り替え


METAR-TAF: